createdAt,value
2023-03-07T00:00:25.728Z,99815.06
2023-03-07T00:02:54.127Z,99820.25
2023-03-07T00:05:22.457Z,99825.44
2023-03-07T00:07:50.879Z,99812.41
2023-03-07T00:10:19.393Z,99823.31
2023-03-07T00:12:47.597Z,99817.16
2023-03-07T00:15:15.881Z,99816.16
2023-03-07T00:17:44.012Z,99825.84
2023-03-07T00:20:15.359Z,99825.72
2023-03-07T00:22:44.751Z,99819.41
2023-03-07T00:25:15.572Z,99820.41
2023-03-07T00:27:43.949Z,99823.56
2023-03-07T00:30:15.649Z,99811.88
2023-03-07T00:32:43.874Z,99811.44
2023-03-07T00:35:12.075Z,99809.06
2023-03-07T00:37:40.632Z,99815.09
2023-03-07T00:40:09.952Z,99820.41
2023-03-07T00:42:38.194Z,99818.59
2023-03-07T00:45:07.023Z,99813.28
2023-03-07T00:47:35.281Z,99809.78
2023-03-07T00:50:04.598Z,99801.66
2023-03-07T00:52:34.516Z,99806.00
2023-03-07T00:55:02.953Z,99795.38
2023-03-07T00:57:31.434Z,99791.00
2023-03-07T00:59:59.917Z,99798.03
2023-03-07T01:02:28.158Z,99796.06
2023-03-07T01:04:56.325Z,99794.13
2023-03-07T01:07:24.603Z,99793.00
2023-03-07T01:09:53.605Z,99793.84
2023-03-07T01:12:22.599Z,99792.00
2023-03-07T01:14:51.919Z,99785.72
2023-03-07T01:17:20.714Z,99784.91
2023-03-07T01:19:48.835Z,99774.25
2023-03-07T01:22:17.040Z,99774.50
2023-03-07T01:24:45.754Z,99778.16
2023-03-07T01:27:15.168Z,99774.91
2023-03-07T01:29:43.524Z,99777.81
2023-03-07T01:32:12.128Z,99771.81
2023-03-07T01:34:40.331Z,99765.75
2023-03-07T01:37:08.589Z,99767.72
2023-03-07T01:39:37.405Z,99764.31
2023-03-07T01:42:08.911Z,99761.81
2023-03-07T01:45:12.272Z,99760.78
2023-03-07T01:47:45.104Z,99765.91
2023-03-07T01:50:17.307Z,99753.00
2023-03-07T01:52:50.112Z,99757.88
2023-03-07T01:55:22.267Z,99744.97
2023-03-07T01:57:55.233Z,99748.88
2023-03-07T02:00:29.141Z,99754.34
2023-03-07T02:03:33.795Z,99752.19
2023-03-07T02:06:07.893Z,99752.13
2023-03-07T02:08:37.672Z,99755.91
2023-03-07T02:11:07.168Z,99757.00
2023-03-07T02:13:35.749Z,99762.69
2023-03-07T02:16:05.316Z,99755.69
2023-03-07T02:18:39.124Z,99760.88
2023-03-07T02:21:38.006Z,99760.19
2023-03-07T02:24:19.054Z,99747.97
2023-03-07T02:26:49.813Z,99748.09
2023-03-07T02:29:18.127Z,99746.28
2023-03-07T02:31:48.337Z,99740.00
2023-03-07T02:34:31.126Z,99748.56
2023-03-07T02:37:20.900Z,99735.97
2023-03-07T02:39:50.630Z,99743.09
2023-03-07T02:42:27.060Z,99744.34
2023-03-07T02:45:07.380Z,99740.72
2023-03-07T02:47:37.706Z,99744.34
2023-03-07T02:50:07.076Z,99742.66
2023-03-07T02:52:38.758Z,99748.09
2023-03-07T02:55:09.621Z,99740.53
2023-03-07T02:57:42.101Z,99738.81
2023-03-07T03:00:12.833Z,99733.38
2023-03-07T03:02:41.546Z,99730.72
2023-03-07T03:05:10.071Z,99728.91
2023-03-07T03:07:38.556Z,99728.06
2023-03-07T03:10:07.265Z,99724.56
2023-03-07T03:12:35.706Z,99726.50
2023-03-07T03:15:05.284Z,99723.09
2023-03-07T03:17:34.504Z,99724.09
2023-03-07T03:20:05.298Z,99730.63
2023-03-07T03:22:33.987Z,99719.41
2023-03-07T03:25:02.349Z,99729.91
2023-03-07T03:27:33.479Z,99728.22
2023-03-07T03:30:02.293Z,99729.19
2023-03-07T03:32:31.391Z,99736.19
2023-03-07T03:35:00.819Z,99728.91
2023-03-07T03:37:29.054Z,99724.31
2023-03-07T03:39:57.374Z,99734.72
2023-03-07T03:42:25.542Z,99727.47
2023-03-07T03:44:53.699Z,99732.78
2023-03-07T03:47:21.743Z,99734.72
2023-03-07T03:49:50.014Z,99734.13
2023-03-07T03:52:18.490Z,99739.53
2023-03-07T03:54:46.850Z,99735.22
2023-03-07T03:57:18.329Z,99738.72
2023-03-07T03:59:47.810Z,99737.75
2023-03-07T04:02:17.743Z,99743.78
2023-03-07T04:04:46.345Z,99733.84
2023-03-07T04:07:14.546Z,99732.78
2023-03-07T04:09:42.984Z,99722.00
2023-03-07T04:12:11.426Z,99717.53
2023-03-07T04:14:39.748Z,99725.50
2023-03-07T04:17:07.911Z,99722.00
2023-03-07T04:19:36.222Z,99729.25
2023-03-07T04:22:05.950Z,99735.44
2023-03-07T04:24:34.512Z,99727.47
2023-03-07T04:27:03.310Z,99730.84
2023-03-07T04:29:31.665Z,99733.38
2023-03-07T04:32:15.017Z,99728.91
2023-03-07T04:34:43.237Z,99731.41
2023-03-07T04:37:11.421Z,99728.06
2023-03-07T04:39:39.793Z,99724.56
2023-03-07T04:42:09.739Z,99729.16
2023-03-07T04:44:38.656Z,99730.84
2023-03-07T04:47:07.135Z,99737.84
2023-03-07T04:49:37.512Z,99730.72
2023-03-07T04:52:07.163Z,99730.59
2023-03-07T04:54:35.621Z,99726.94
2023-03-07T04:57:05.828Z,99722.59
2023-03-07T04:59:36.580Z,99729.88
2023-03-07T05:02:07.951Z,99736.88
2023-03-07T05:04:36.280Z,99733.97
2023-03-07T05:07:05.609Z,99734.81
2023-03-07T05:09:34.431Z,99732.00
2023-03-07T05:12:02.743Z,99726.44
2023-03-07T05:14:31.270Z,99719.16
2023-03-07T05:16:59.464Z,99725.06
2023-03-07T05:19:27.751Z,99727.47
2023-03-07T05:21:55.951Z,99728.31
2023-03-07T05:24:24.285Z,99730.16
2023-03-07T05:26:52.601Z,99730.25
